Seahouses, United Kingdom
Current Conditions -  °F | °C
As of 2:50 AM on Tuesday 23 Dec 2014 (Local Time) from EGQM Reporting Station
Light Rain Light Rain  
Wind Chill: 44°   Ceiling: 6000
Heat Index: 48°   Visibility: 6mi
Dew Point: 48°   Wind: 9mph
Humidity: 100%   Direction: 230°SW
Pressure: 29.62"   Gusts: NA
Location:  55.58°N, 1.65°W
Report Text: EGQM 230250Z AUTO 23008KT 9999 -RADZ SCT024/// BKN060/// 09/09 Q1003
Loading
Personal Weather Stations






























Interactive Weather Map New forecast layout! Learn more

10-Day Weather Forecast

Advertisements
Track Severe Weather on mobile